Time;durP1;ratioP1;P1;durP2;ratioP2;P2;SDS_P1;SDS_P2;PMS_P1;PMS_P2;Temp;Humidity;BMP_temperature;BMP_pressure;BME280_temperature;BME280_humidity;BME280_pressure;Samples;Min_cycle;Max_cycle;Signal;HPM_P1;HPM_P2
2022/08/10 00:12:57;;;;;;;8.85;3.50;;;;;;;;;;5061141;24;20061;-89
2022/08/10 00:15:23;;;;;;;7.10;3.38;;;;;;;;;;4963943;24;20055;-89
2022/08/10 00:17:49;;;;;;;5.40;3.60;;;;;;;;;;4780625;29;20105;-88
2022/08/10 00:23:06;;;;;;;5.22;3.53;;;;;;;;;;4790626;29;20095;-89
2022/08/10 00:35:15;;;;;;;3.35;2.72;;;;;;;;;;4825338;29;20257;-88
2022/08/10 00:38:12;;;;;;;5.45;3.40;;;;;;;;;;4812965;29;20071;-87
2022/08/10 00:50:49;;;;;;;7.30;4.32;;;;;;;;;;4825357;29;20069;-88
2022/08/10 00:53:15;;;;;;;7.63;4.78;;;;;;;;;;4825027;29;20053;-88
2022/08/10 00:56:12;;;;;;;6.78;4.75;;;17.20;99.90;;;;;;4789065;29;20708;-88
2022/08/10 01:26:33;;;;;;;11.90;5.90;;;;;;;;;;4843233;29;20060;-88
2022/08/10 01:33:19;;;;;;;11.30;6.47;;;;;;;;;;4826548;29;20054;-89
2022/08/10 01:49:20;;;;;;;11.55;6.55;;;17.00;99.90;;;;;;4854138;23;21303;-90
2022/08/10 02:01:31;;;;;;;11.80;9.07;;;;;;;;;;4853289;23;20019;-86
2022/08/10 02:11:31;;;;;;;13.32;9.93;;;;;;;;;;4806613;24;20058;-86
2022/08/10 02:14:36;;;;;;;18.13;11.48;;;;;;;;;;4784959;29;20055;-87
2022/08/10 02:17:33;;;;;;;15.02;11.00;;;;;;;;;;4765074;29;20082;-87
2022/08/10 02:20:01;;;;;;;18.33;10.85;;;;;;;;;;4774837;29;20570;-87
2022/08/10 02:22:28;;;;;;;16.23;9.63;;;;;;;;;;4793111;29;20051;-88
2022/08/10 02:24:54;;;;;;;15.88;11.02;;;;;;;;;;4911177;24;20312;-87
2022/08/10 02:27:22;;;;;;;17.80;11.20;;;;;;;;;;4855375;23;20059;-87
2022/08/10 02:30:02;;;;;;;13.77;11.63;;;;;;;;;;4803670;29;20082;-87
2022/08/10 02:44:52;;;;;;;16.45;11.20;;;;;;;;;;4973653;23;20202;-90
2022/08/10 02:47:41;;;;;;;15.63;11.70;;;;;;;;;;4832823;29;20118;-89
2022/08/10 03:14:19;;;;;;;14.93;11.10;;;;;;;;;;4853983;23;20077;-89
2022/08/10 03:20:30;;;;;;;15.27;10.68;;;;;;;;;;4809640;29;20074;-88
2022/08/10 03:22:57;;;;;;;17.83;10.57;;;;;;;;;;4796458;29;20504;-89
2022/08/10 03:35:51;;;;;;;16.70;10.75;;;;;;;;;;5028875;23;20089;-90
2022/08/10 04:13:29;;;;;;;15.27;10.35;;;16.50;99.90;;;;;;4946204;24;20058;-91
2022/08/10 04:16:04;;;;;;;15.02;10.30;;;;;;;;;;4830227;29;20050;-89
2022/08/10 04:18:55;;;;;;;17.65;10.38;;;;;;;;;;4815828;24;20035;-90
2022/08/10 04:21:26;;;;;;;21.17;11.00;;;;;;;;;;4804258;29;20050;-90
2022/08/10 04:23:57;;;;;;;20.48;11.40;;;;;;;;;;4803461;29;20046;-88
2022/08/10 04:26:25;;;;;;;17.58;10.40;;;;;;;;;;4795420;29;20065;-89
2022/08/10 04:28:51;;;;;;;17.75;10.50;;;;;;;;;;4815615;29;20483;-88
2022/08/10 04:31:19;;;;;;;14.40;10.73;;;;;;;;;;4823457;29;20070;-88
2022/08/10 04:33:46;;;;;;;14.88;10.88;;;;;;;;;;4820742;29;20051;-89
2022/08/10 04:36:14;;;;;;;14.57;10.13;;;;;;;;;;4816120;29;20054;-89
2022/08/10 04:38:41;;;;;;;14.70;9.88;;;;;;;;;;4820386;29;20043;-88
2022/08/10 04:41:14;;;;;;;11.52;8.75;;;;;;;;;;4843317;29;20072;-87
2022/08/10 04:46:49;;;;;;;15.73;8.95;;;;;;;;;;4822996;29;20109;-90
2022/08/10 04:56:29;;;;;;;11.57;8.40;;;;;;;;;;4852508;24;20054;-89
2022/08/10 04:59:22;;;;;;;;;;;;;;;;;;;;;
2022/08/10 05:01:54;;;;;;;10.88;8.52;;;;;;;;;;4758116;30;20063;-90
2022/08/10 05:04:29;;;;;;;16.40;8.75;;;;;;;;;;4752752;30;20063;-90
2022/08/10 05:12:41;;;;;;;12.23;9.38;;;;;;;;;;4677378;23;8594369;-89
2022/08/10 05:15:11;;;;;;;14.77;9.75;;;;;;;;;;4810111;29;20061;-89
2022/08/10 05:17:43;;;;;;;10.73;7.45;;;;;;;;;;4825445;23;20429;-90
2022/08/10 05:20:12;;;;;;;10.30;7.32;;;;;;;;;;4821018;29;20034;-88
2022/08/10 05:22:39;;;;;;;11.20;6.45;;;;;;;;;;4817058;29;20061;-90
2022/08/10 05:25:14;;;;;;;11.23;6.47;;;;;;;;;;4816447;29;20576;-91
2022/08/10 05:33:28;;;;;;;12.02;6.55;;;;;;;;;;4831692;24;20067;-91
2022/08/10 05:35:55;;;;;;;13.38;7.22;;;;;;;;;;4802410;29;20077;-89
2022/08/10 05:38:23;;;;;;;13.05;7.35;;;;;;;;;;4815338;29;20050;-90
2022/08/10 05:49:05;;;;;;;18.45;8.52;;;;;;;;;;4833989;29;20079;-89
2022/08/10 05:54:54;;;;;;;11.32;8.23;;;;;;;;;;5011307;24;20061;-91
2022/08/10 05:57:22;;;;;;;11.35;8.02;;;;;;;;;;4810828;29;20050;-90
2022/08/10 06:00:00;;;;;;;12.85;8.25;;;;;;;;;;4808270;29;20042;-90
2022/08/10 06:03:10;;;;;;;10.00;6.85;;;;;;;;;;4816189;29;20577;-89
2022/08/10 06:09:15;;;;;;;17.30;8.32;;;;;;;;;;4809971;29;20057;-89
2022/08/10 06:15:19;;;;;;;10.60;6.90;;;;;;;;;;4758222;30;20144;-89
2022/08/10 06:17:51;;;;;;;8.95;6.95;;;;;;;;;;4736146;30;20036;-88
2022/08/10 06:36:40;;;;;;;;;;;18.20;99.90;;;;;;4833125;24;20458;-88
2022/08/10 06:42:41;;;;;;;11.13;6.43;;;;;;;;;;4844583;24;20481;-88
2022/08/10 07:09:24;;;;;;;9.25;4.40;;;;;;;;;;4838677;29;20145;-89
2022/08/10 07:12:16;;;;;;;6.43;4.18;;;;;;;;;;4812853;29;20050;-90
2022/08/10 07:17:41;;;;;;;5.93;3.60;;;;;;;;;;5024370;23;20121;-89
2022/08/10 07:20:17;;;;;;;8.50;3.35;;;;;;;;;;4804340;29;20526;-90
2022/08/10 07:22:55;;;;;;;8.48;3.53;;;;;;;;;;4802626;29;20147;-91
2022/08/10 07:25:52;;;;;;;5.97;3.00;;;;;;;;;;4821254;29;20054;-92
2022/08/10 07:28:21;;;;;;;6.32;3.53;;;;;;;;;;4810344;29;20042;-90
2022/08/10 07:44:03;;;;;;;4.03;2.95;;;;;;;;;;4820967;29;19925;-87
2022/08/10 07:46:29;;;;;;;3.63;2.53;;;;;;;;;;4803295;29;20066;-87
2022/08/10 07:49:02;;;;;;;4.47;2.85;;;;;;;;;;4818833;29;20042;-86
2022/08/10 07:58:16;;;;;;;4.03;2.08;;;;;;;;;;4840162;29;20130;-88
2022/08/10 08:04:00;;;;;;;4.65;2.20;;;;;;;;;;4826524;29;20046;-90
2022/08/10 08:06:52;;;;;;;3.35;2.20;;;;;;;;;;4787562;29;20058;-89
2022/08/10 08:09:53;;;;;;;1.95;1.77;;;;;;;;;;4829391;29;20061;-90
2022/08/10 08:12:26;;;;;;;6.43;2.30;;;;;;;;;;4807276;29;20061;-88
2022/08/10 08:18:53;;;;;;;2.70;2.10;;;;;;;;;;4850295;29;20048;-87
2022/08/10 08:21:48;;;;;;;4.03;1.95;;;;;;;;;;4824396;29;20049;-88
2022/08/10 08:24:15;;;;;;;5.40;1.98;;;;;;;;;;4819719;29;20057;-85
2022/08/10 08:38:32;;;;;;;5.85;1.70;;;;;;;;;;4836655;24;20055;-89
2022/08/10 08:48:44;;;;;;;4.00;2.00;;;;;;;;;;4787688;29;20103;-87
2022/08/10 08:51:17;;;;;;;2.33;1.92;;;;;;;;;;4799467;29;20050;-87
2022/08/10 08:54:20;;;;;;;3.03;2.05;;;;;;;;;;4819874;29;20053;-86
2022/08/10 08:57:02;;;;;;;7.53;1.98;;;;;;;;;;4805976;29;20479;-85
2022/08/10 08:59:34;;;;;;;2.97;2.00;;;;;;;;;;4833818;29;20038;-86
2022/08/10 09:02:09;;;;;;;3.97;2.72;;;;;;;;;;4817934;29;20042;-86
2022/08/10 09:04:54;;;;;;;3.97;2.17;;;;;;;;;;4791137;29;20651;-87
2022/08/10 09:07:20;;;;;;;6.80;2.67;;;;;;;;;;4793420;29;20063;-88
2022/08/10 09:10:26;;;;;;;6.93;2.00;;;22.70;99.90;;;;;;4800734;29;20043;-85
2022/08/10 09:12:52;;;;;;;6.45;2.38;;;;;;;;;;4801776;29;20038;-85
2022/08/10 09:15:28;;;;;;;2.63;1.95;;;;;;;;;;4821763;29;20455;-85
2022/08/10 09:18:00;;;;;;;2.97;2.00;;;;;;;;;;4822518;29;20074;-85
2022/08/10 09:20:46;;;;;;;5.95;2.40;;;;;;;;;;4810934;29;20170;-86
2022/08/10 09:23:31;;;;;;;5.93;1.80;;;;;;;;;;4797581;29;20057;-86
2022/08/10 09:26:03;;;;;;;5.70;2.40;;;;;;;;;;4828177;29;20110;-87
2022/08/10 09:28:35;;;;;;;3.45;2.05;;;;;;;;;;4809976;29;20056;-87
2022/08/10 09:31:20;;;;;;;3.92;1.85;;;;;;;;;;4811625;29;20069;-87
2022/08/10 09:34:07;;;;;;;4.75;2.00;;;;;;;;;;4833240;29;20050;-87
2022/08/10 09:37:08;;;;;;;2.33;1.88;;;;;;;;;;4826319;29;20517;-87
2022/08/10 09:39:48;;;;;;;3.33;1.90;;;;;;;;;;4790212;29;20069;-87
2022/08/10 09:45:31;;;;;;;2.08;1.80;;;;;;;;;;4815677;29;20054;-88
2022/08/10 09:51:51;;;;;;;4.65;1.95;;;;;;;;;;4778203;30;20093;-88
2022/08/10 09:54:36;;;;;;;3.33;1.70;;;;;;;;;;4804308;29;20423;-88
2022/08/10 09:57:16;;;;;;;6.07;2.03;;;;;;;;;;4813023;29;20047;-86
2022/08/10 09:59:48;;;;;;;4.03;1.73;;;;;;;;;;4801469;29;20050;-88
2022/08/10 10:02:33;;;;;;;4.13;1.95;;;;;;;;;;4807898;29;20054;-88
2022/08/10 10:05:09;;;;;;;2.83;1.50;;;;;;;;;;4806167;29;20450;-88
2022/08/10 10:07:53;;;;;;;3.65;1.60;;;;;;;;;;4803923;29;20057;-86
2022/08/10 10:10:24;;;;;;;2.78;1.60;;;;;;;;;;4811897;29;20058;-87
2022/08/10 10:13:00;;;;;;;4.60;2.00;;;;;;;;;;4821812;29;20043;-89
2022/08/10 10:15:32;;;;;;;2.85;1.60;;;;;;;;;;4833498;29;20074;-88
2022/08/10 10:18:07;;;;;;;5.00;1.83;;;;;;;;;;4801861;29;20139;-89
2022/08/10 10:20:53;;;;;;;6.38;1.55;;;;;;;;;;4813199;23;20080;-88
2022/08/10 10:23:38;;;;;;;3.60;1.90;;;;;;;;;;4796902;29;20058;-88
2022/08/10 10:28:43;;;;;;;2.97;2.10;;;;;;;;;;4831624;24;20093;-87
2022/08/10 10:31:15;;;;;;;3.10;2.00;;;;;;;;;;4803186;29;20065;-89
2022/08/10 10:37:00;;;;;;;4.72;1.83;;;;;;;;;;4783345;29;20087;-88
2022/08/10 10:39:26;;;;;;;3.58;1.65;;;;;;;;;;4797640;29;20046;-89
2022/08/10 10:42:03;;;;;;;3.38;2.05;;;;;;;;;;4811779;29;20060;-88
2022/08/10 10:44:32;;;;;;;4.35;2.10;;;;;;;;;;4819042;29;20053;-88
2022/08/10 10:47:34;;;;;;;3.38;1.60;;;;;;;;;;4832561;29;20045;-88
2022/08/10 10:50:01;;;;;;;3.42;1.50;;;;;;;;;;4831632;29;20519;-87
2022/08/10 10:52:44;;;;;;;4.78;2.13;;;;;;;;;;4817239;29;20090;-89
2022/08/10 10:55:23;;;;;;;4.22;1.98;;;;;;;;;;4818692;29;20065;-88
2022/08/10 10:58:16;;;;;;;4.15;2.28;;;25.20;99.90;;;;;;4822834;29;20057;-89
2022/08/10 11:01:15;;;;;;;3.65;1.50;;;;;;;;;;4837870;29;20156;-90
2022/08/10 11:03:57;;;;;;;3.67;1.90;;;;;;;;;;4796034;29;20070;-88
2022/08/10 11:13:21;;;;;;;8.88;1.90;;;;;;;;;;4841149;23;20091;-88
2022/08/10 11:19:05;;;;;;;4.53;1.63;;;;;;;;;;4842932;24;20057;-89
2022/08/10 11:21:32;;;;;;;5.85;2.22;;;;;;;;;;4800737;29;20046;-90
2022/08/10 11:57:16;;;;;;;3.88;1.90;;;;;;;;;;4833581;29;20091;-89
2022/08/10 11:59:55;;;;;;;5.05;1.65;;;;;;;;;;4815669;29;20068;-88
2022/08/10 12:05:54;;;;;;;6.28;1.83;;;;;;;;;;4835055;24;20114;-88
2022/08/10 12:08:32;;;;;;;5.43;1.90;;;;;;;;;;4801573;29;20108;-87
2022/08/10 12:13:50;;;;;;;5.50;2.30;;;;;;;;;;4832171;23;20104;-89
2022/08/10 12:16:28;;;;;;;5.60;1.80;;;;;;;;;;4828866;29;20060;-89
2022/08/10 12:22:31;;;;;;;4.88;1.98;;;;;;;;;;4807799;29;20057;-89
2022/08/10 12:34:25;;;;;;;8.45;2.50;;;;;;;;;;4967330;24;20141;-86
2022/08/10 12:40:27;;;;;;;5.68;1.70;;;;;;;;;;4797548;29;20062;-87
2022/08/10 12:52:15;;;;;;;6.10;1.60;;;;;;;;;;4976988;23;20042;-84
2022/08/10 12:55:17;;;;;;;3.80;1.53;;;;;;;;;;4831903;29;20073;-85
2022/08/10 13:04:13;;;;;;;3.58;1.77;;;;;;;;;;4831091;24;20155;-89
2022/08/10 13:13:06;;;;;;;4.82;2.13;;;;;;;;;;4825030;24;20530;-88
2022/08/10 13:15:57;;;;;;;3.67;2.00;;;;;;;;;;4806675;29;20070;-87
2022/08/10 13:18:54;;;;;;;2.85;2.10;;;;;;;;;;4830544;29;20053;-86
2022/08/10 13:21:20;;;;;;;4.97;1.85;;;;;;;;;;4798047;29;20058;-85
2022/08/10 13:27:14;;;;;;;3.40;1.75;;;;;;;;;;4826541;29;20102;-89
2022/08/10 13:30:06;;;;;;;4.00;1.80;;;;;;;;;;4805274;24;20059;-86
2022/08/10 13:32:37;;;;;;;4.32;1.63;;;;;;;;;;4804526;29;20070;-87
2022/08/10 13:38:06;;;;;;;3.50;1.67;;;;;;;;;;4844656;23;20049;-85
2022/08/10 13:40:44;;;;;;;2.55;1.90;;;;;;;;;;4825039;23;20041;-87
2022/08/10 13:47:07;;;;;;;6.47;1.75;;;;;;;;;;4846511;23;20200;-83
2022/08/10 13:55:56;;;;;;;4.53;1.60;;;;;;;;;;4785585;29;20070;-85
2022/08/10 13:58:27;;;;;;;2.95;1.40;;;;;;;;;;4794481;29;20058;-86
2022/08/10 14:01:21;;;;;;;7.55;2.00;;;;;;;;;;4810518;24;20360;-85
2022/08/10 14:03:52;;;;;;;4.90;1.30;;;;;;;;;;4817730;29;20106;-86
2022/08/10 14:06:19;;;;;;;7.30;1.60;;;;;;;;;;4841059;24;20125;-85
2022/08/10 14:44:43;;;;;;;3.15;1.20;;;;;;;;;;4867524;29;20109;-88
2022/08/10 14:47:17;;;;;;;4.35;1.20;;;;;;;;;;4845315;29;20058;-86
2022/08/10 14:57:07;;;;;;;2.35;1.20;;;;;;;;;;4812081;29;20056;-86
2022/08/10 14:59:37;;;;;;;3.53;1.67;;;;;;;;;;4795394;29;20051;-85
2022/08/10 15:02:05;;;;;;;4.53;1.27;;;;;;;;;;4815019;29;20054;-85
2022/08/10 15:04:32;;;;;;;6.72;1.45;;;;;;;;;;4816409;29;20054;-86
2022/08/10 15:07:02;;;;;;;5.68;1.50;;;;;;;;;;4819846;29;20046;-86
2022/08/10 15:12:52;;;;;;;4.25;1.50;;;;;;;;;;4814600;29;20074;-87
2022/08/10 15:18:10;;;;;;;6.05;1.40;;;;;;;;;;4976431;24;20033;-85
2022/08/10 15:49:28;;;;;;;6.40;1.83;;;;;;;;;;4841551;29;20040;-82
2022/08/10 15:52:08;;;;;;;5.32;1.30;;;;;;;;;;4825319;29;20046;-84
2022/08/10 15:54:39;;;;;;;7.00;1.48;;;;;;;;;;4824508;29;20080;-85
2022/08/10 15:57:10;;;;;;;6.03;1.50;;;;;;;;;;4810164;29;20106;-88
2022/08/10 15:59:43;;;;;;;3.28;1.48;;;;;;;;;;4801181;29;20050;-87
2022/08/10 16:02:14;;;;;;;7.32;1.33;;;;;;;;;;4828813;29;20060;-85
2022/08/10 16:04:59;;;;;;;3.85;1.02;;;;;;;;;;4814042;29;20098;-84
2022/08/10 16:07:33;;;;;;;4.03;1.10;;;;;;;;;;4816228;29;20058;-85
2022/08/10 16:10:10;;;;;;;3.88;1.27;;;;;;;;;;4814718;29;20469;-87
2022/08/10 16:12:40;;;;;;;3.97;1.33;;;;;;;;;;4824232;29;20133;-83
2022/08/10 16:15:09;;;;;;;6.50;1.40;;;;;;;;;;4821677;29;20085;-87
2022/08/10 16:17:39;;;;;;;7.97;1.30;;;;;;;;;;4807277;29;20045;-83
2022/08/10 16:20:05;;;;;;;5.15;1.50;;;;;;;;;;4825629;29;20064;-83
2022/08/10 16:22:50;;;;;;;6.43;1.50;;;;;;;;;;4826303;29;20083;-87
2022/08/10 16:25:16;;;;;;;7.03;1.35;;;;;;;;;;4823037;29;20838;-82
2022/08/10 16:27:43;;;;;;;4.80;1.05;;;;;;;;;;4803630;29;20141;-84
2022/08/10 16:30:09;;;;;;;3.58;1.17;;;;;;;;;;4824486;29;20053;-85
2022/08/10 16:32:36;;;;;;;4.28;1.20;;;;;;;;;;4829091;29;20034;-86
2022/08/10 16:35:05;;;;;;;4.95;1.30;;;;;;;;;;4810093;29;20049;-86
2022/08/10 16:37:36;;;;;;;5.47;1.60;;;;;;;;;;4827705;29;20136;-85
2022/08/10 16:40:03;;;;;;;9.23;1.50;;;;;;;;;;4822516;29;20239;-87
2022/08/10 16:42:31;;;;;;;4.68;1.38;;;;;;;;;;4825998;29;20101;-86
2022/08/10 16:45:03;;;;;;;4.25;1.30;;;;;;;;;;4806622;29;20126;-85
2022/08/10 16:47:30;;;;;;;3.83;1.20;;;;;;;;;;4809069;29;20397;-85
2022/08/10 16:49:59;;;;;;;5.10;1.10;;;;;;;;;;4823430;29;20058;-85
2022/08/10 16:52:26;;;;;;;6.60;1.38;;;;;;;;;;4819602;29;20062;-85
2022/08/10 16:54:56;;;;;;;8.85;1.23;;;;;;;;;;4824700;29;20106;-85
2022/08/10 16:57:22;;;;;;;3.90;1.50;;;;;;;;;;4807360;29;20138;-84
2022/08/10 16:59:48;;;;;;;4.70;1.70;;;;;;;;;;4819888;29;20672;-87
2022/08/10 17:02:19;;;;;;;5.05;1.30;;;;;;;;;;4808944;29;20042;-87
2022/08/10 17:04:46;;;;;;;3.45;1.60;;;;;;;;;;4821051;29;20058;-87
2022/08/10 17:07:29;;;;;;;4.15;1.50;;;;;;;;;;4822184;29;20551;-87
2022/08/10 17:10:06;;;;;;;;;;;;;;;;;;;;;
2022/08/10 17:12:39;;;;;;;4.28;1.58;;;;;;;;;;4827059;29;20054;-86
2022/08/10 17:15:12;;;;;;;3.53;1.10;;;;;;;;;;4812165;29;20046;-83
2022/08/10 17:17:44;;;;;;;4.57;1.70;;;;;;;;;;4826149;29;20046;-86
2022/08/10 17:20:12;;;;;;;2.78;1.35;;;;;;;;;;4816519;29;20066;-84
2022/08/10 17:22:53;;;;;;;3.63;1.40;;;;;;;;;;4827954;29;20034;-88
2022/08/10 17:25:21;;;;;;;7.53;1.67;;;;;;;;;;4830088;29;20079;-84
2022/08/10 17:27:48;;;;;;;6.68;1.40;;;;;;;;;;4825911;29;20538;-84
2022/08/10 17:30:15;;;;;;;4.40;1.30;;;;;;;;;;4825793;29;20062;-83
2022/08/10 17:32:59;;;;;;;7.88;1.60;;;;;;;;;;4810043;29;20038;-86
2022/08/10 17:35:25;;;;;;;;;;;;;;;;;;4800355;29;20050;-84
2022/08/10 17:37:56;;;;;;;7.97;1.52;;;;;;;;;;4826834;29;19931;-84
2022/08/10 17:40:26;;;;;;;4.60;1.30;;;;;;;;;;4810851;29;20107;-87
2022/08/10 17:43:20;;;;;;;5.65;1.42;;;;;;;;;;4810105;29;20511;-86
2022/08/10 17:45:50;;;;;;;8.15;1.92;;;;;;;;;;4824228;29;20261;-82
2022/08/10 17:48:17;;;;;;;6.55;1.30;;;;;;;;;;4810023;29;20082;-84
2022/08/10 17:50:51;;;;;;;6.95;1.50;;;;;;;;;;4823899;29;20038;-86
2022/08/10 17:53:21;;;;;;;9.23;2.38;;;;;;;;;;4821675;29;20057;-86
2022/08/10 17:55:49;;;;;;;7.05;1.83;;;;;;;;;;4822514;29;20095;-86
2022/08/10 17:58:20;;;;;;;8.88;2.15;;;;;;;;;;4825915;29;20062;-87
2022/08/10 18:00:50;;;;;;;8.38;1.60;;;;;;;;;;4827871;29;20084;-85
2022/08/10 18:03:24;;;;;;;7.05;1.80;;;;;;;;;;4823527;29;20125;-86
2022/08/10 18:05:53;;;;;;;7.28;1.30;;;;;;;;;;4797753;29;20066;-86
2022/08/10 18:08:20;;;;;;;5.13;1.50;;;;;;;;;;4827972;29;20046;-87
2022/08/10 18:10:50;;;;;;;11.55;1.40;;;;;;;;;;4812843;29;20182;-86
2022/08/10 18:13:17;;;;;;;4.60;1.60;;;;;;;;;;4797399;29;20074;-85
2022/08/10 18:15:43;;;;;;;28.83;2.88;;;;;;;;;;4813469;29;20050;-86
2022/08/10 18:18:29;;;;;;;7.30;1.33;;;;;;;;;;4813375;29;20045;-88
2022/08/10 18:21:14;;;;;;;5.68;1.50;;;;;;;;;;4833994;24;20058;-82
2022/08/10 18:23:42;;;;;;;6.38;1.73;;;;;;;;;;4818732;29;20057;-86
2022/08/10 18:26:23;;;;;;;6.57;1.65;;;;;;;;;;4824152;29;20122;-86
2022/08/10 18:28:58;;;;;;;16.13;2.50;;;;;;;;;;4801651;29;20049;-85
2022/08/10 18:31:25;;;;;;;10.23;1.83;;;;;;;;;;4829451;29;20105;-85
2022/08/10 18:34:03;;;;;;;6.57;2.10;;;;;;;;;;4809466;29;20046;-86
2022/08/10 18:36:31;;;;;;;14.27;2.13;;;;;;;;;;4815424;29;20539;-86
2022/08/10 18:38:59;;;;;;;14.45;2.33;;;;;;;;;;4809128;29;20393;-86
2022/08/10 18:41:34;;;;;;;14.45;2.22;;;;;;;;;;4834008;29;20049;-83
2022/08/10 18:44:15;;;;;;;6.13;1.70;;;;;;;;;;4819389;29;20049;-86
2022/08/10 18:50:08;;;;;;;7.70;1.85;;;;;;;;;;4829675;29;20053;-86
2022/08/10 18:56:06;;;;;;;8.35;2.42;;;;;;;;;;4831140;29;20042;-84
2022/08/10 18:58:51;;;;;;;5.85;1.38;;;;;;;;;;4798571;29;20054;-85
2022/08/10 19:01:22;;;;;;;12.18;1.80;;;;;;;;;;4798130;29;20046;-86
2022/08/10 19:07:04;;;;;;;5.78;1.90;;;;;;;;;;4828398;29;20137;-86
2022/08/10 19:09:30;;;;;;;16.15;2.40;;;;;;;;;;4809862;29;20050;-86
2022/08/10 19:12:36;;;;;;;10.10;2.00;;;;;;;;;;4831367;29;20445;-85
2022/08/10 19:15:13;;;;;;;22.25;2.35;;;;;;;;;;4826793;29;20050;-85
2022/08/10 19:17:58;;;;;;;13.70;2.00;;;;;;;;;;4829445;29;20066;-87
2022/08/10 19:20:34;;;;;;;7.60;1.98;;;;;;;;;;4833990;24;20419;-84
2022/08/10 19:23:19;;;;;;;3.83;1.98;;;;;;;;;;4809249;29;20126;-87
2022/08/10 19:26:20;;;;;;;7.78;2.30;;;;;;;;;;4823765;29;20051;-86
2022/08/10 19:29:27;;;;;;;6.20;2.10;;;;;;;;;;4836029;29;20117;-85
2022/08/10 19:32:02;;;;;;;11.38;2.08;;;;;;;;;;4784057;29;20150;-84
2022/08/10 19:34:39;;;;;;;7.72;2.13;;;;;;;;;;4767467;29;20054;-84
2022/08/10 19:37:28;;;;;;;14.20;2.17;;;;;;;;;;4812708;29;20444;-85
2022/08/10 19:40:13;;;;;;;6.22;2.50;;;;;;;;;;4821505;29;20054;-85
2022/08/10 19:42:55;;;;;;;10.93;2.20;;;;;;;;;;4798233;29;20049;-87
2022/08/10 19:45:28;;;;;;;7.25;2.03;;;;;;;;;;4825558;29;20469;-84
2022/08/10 19:48:11;;;;;;;7.68;2.40;;;;;;;;;;4805809;29;20482;-84
2022/08/10 19:50:53;;;;;;;8.93;2.38;;;;;;;;;;4820946;29;20050;-85
2022/08/10 19:53:26;;;;;;;5.25;2.15;;;;;;;;;;4829134;29;20062;-83
2022/08/10 19:56:13;;;;;;;6.90;1.90;;;;;;;;;;4824448;29;20043;-83
2022/08/10 19:58:48;;;;;;;10.60;2.03;;;;;;;;;;4805482;29;20095;-84
2022/08/10 20:01:15;;;;;;;6.00;1.90;;;;;;;;;;4806621;29;20054;-84
2022/08/10 20:04:00;;;;;;;5.00;2.33;;;;;;;;;;4809003;29;20046;-86
2022/08/10 20:06:29;;;;;;;4.43;2.10;;;;;;;;;;4817568;29;20061;-84
2022/08/10 20:09:10;;;;;;;6.55;2.30;;;;;;;;;;4811401;29;20125;-84
2022/08/10 20:11:51;;;;;;;6.60;2.70;;;;;;;;;;4804821;29;20150;-82
2022/08/10 20:14:36;;;;;;;8.07;2.85;;;;;;;;;;4822252;29;20055;-82
2022/08/10 20:17:04;;;;;;;20.67;2.60;;;;;;;;;;4823814;29;20085;-85
2022/08/10 20:19:34;;;;;;;6.57;2.50;;;;;;;;;;4820809;29;20061;-84
2022/08/10 20:22:08;;;;;;;7.07;2.85;;;;;;;;;;4819314;29;20050;-83
2022/08/10 20:25:01;;;;;;;6.93;3.17;;;;;;;;;;4816405;29;20056;-81
2022/08/10 20:28:10;;;;;;;8.02;2.70;;;20.40;99.90;;;;;;4825557;29;20050;-85
2022/08/10 20:30:59;;;;;;;4.47;2.65;;;20.40;99.90;;;;;;4808006;29;20602;-84
2022/08/10 20:33:27;;;;;;;8.85;2.90;;;;;;;;;;4798195;29;20051;-84
2022/08/10 20:36:12;;;;;;;7.38;2.58;;;;;;;;;;4814147;29;20086;-84
2022/08/10 20:38:38;;;;;;;4.18;2.20;;;;;;;;;;4810119;29;20064;-84
2022/08/10 20:41:14;;;;;;;12.10;2.80;;;;;;;;;;4834976;29;20034;-85
2022/08/10 20:43:46;;;;;;;3.97;2.50;;;;;;;;;;4817530;29;20039;-85
2022/08/10 20:49:27;;;;;;;6.15;3.00;;;;;;;;;;4819631;29;20055;-84
2022/08/10 20:52:01;;;;;;;3.10;2.35;;;;;;;;;;4828948;29;20045;-87
2022/08/10 20:55:00;;;;;;;8.70;2.55;;;;;;;;;;4830187;29;20054;-87
2022/08/10 20:57:51;;;;;;;3.42;2.63;;;;;;;;;;4798240;29;20098;-84
2022/08/10 21:00:24;;;;;;;5.95;2.67;;;;;;;;;;4826940;29;20408;-88
2022/08/10 21:03:12;;;;;;;3.53;2.35;;;;;;;;;;4812238;29;20125;-84
2022/08/10 21:05:57;;;;;;;3.90;2.50;;;;;;;;;;4815407;29;20093;-84
2022/08/10 21:08:46;;;;;;;7.88;2.53;;;19.90;99.90;;;;;;4826642;29;20058;-83
2022/08/10 21:11:21;;;;;;;5.40;2.33;;;;;;;;;;4810439;29;20055;-83
2022/08/10 21:14:13;;;;;;;5.00;2.55;;;;;;;;;;4812830;29;20062;-83
2022/08/10 21:16:48;;;;;;;3.47;2.22;;;;;;;;;;4813710;29;20042;-85
2022/08/10 21:19:17;;;;;;;6.43;2.65;;;;;;;;;;4824065;29;20069;-86
2022/08/10 21:21:48;;;;;;;3.72;2.35;;;;;;;;;;4810604;29;20070;-89
2022/08/10 21:24:23;;;;;;;4.10;2.38;;;;;;;;;;4823124;29;20073;-85
2022/08/10 22:52:25;;;;;;;6.28;2.88;;;;;;;;;;4839330;29;20050;-86
2022/08/10 23:01:38;;;;;;;5.72;3.10;;;;;;;;;;4829583;29;20053;-85
2022/08/10 23:04:02;;;;;;;5.47;3.05;;;;;;;;;;4828529;29;20100;-83
2022/08/10 23:06:31;;;;;;;5.22;2.95;;;;;;;;;;4827882;29;20065;-83
2022/08/10 23:08:59;;;;;;;7.65;3.17;;;;;;;;;;4838400;29;20054;-84
2022/08/10 23:11:27;;;;;;;3.08;2.60;;;;;;;;;;4841775;29;20054;-85
2022/08/10 23:14:07;;;;;;;15.35;2.97;;;;;;;;;;4828550;29;20587;-82
2022/08/10 23:22:06;;;;;;;7.68;3.13;;;;;;;;;;4825682;29;20053;-87
2022/08/10 23:24:50;;;;;;;6.53;3.10;;;;;;;;;;4819213;29;20093;-84
2022/08/10 23:27:17;;;;;;;7.75;3.33;;;;;;;;;;4825763;29;20113;-86
2022/08/10 23:29:49;;;;;;;6.55;3.25;;;;;;;;;;4841110;29;20066;-84
2022/08/10 23:32:15;;;;;;;6.40;3.10;;;;;;;;;;4822288;29;20471;-84
2022/08/10 23:34:43;;;;;;;8.65;3.20;;;;;;;;;;4852426;29;20034;-83
2022/08/10 23:40:49;;;;;;;8.07;3.00;;;;;;;;;;4817759;24;20058;-85
2022/08/10 23:43:16;;;;;;;5.28;3.03;;;;;;;;;;4797639;29;20158;-82
2022/08/10 23:45:42;;;;;;;4.97;2.92;;;;;;;;;;4797206;29;20048;-84
2022/08/10 23:48:09;;;;;;;4.47;3.30;;;;;;;;;;4784745;29;20500;-83
2022/08/10 23:50:36;;;;;;;5.10;2.70;;;;;;;;;;4788196;29;20041;-85
2022/08/10 23:53:03;;;;;;;8.50;3.20;;;;;;;;;;4787306;29;20130;-84
2022/08/10 23:55:31;;;;;;;3.30;2.67;;;;;;;;;;4800862;29;21048;-84
2022/08/10 23:58:20;;;;;;;9.23;3.20;;;;;;;;;;4789415;29;20493;-84
